Los Posos, Valles Caldera, New Mexico Weather observations

Data are for 10 minute period ending at time listed.
 Day   Time   Solar   Ave.   Ave.  Ave.  Vector  Max.   Baro.   Total    
  of    of     Rad.   Air    Rel.  Wind   Wind   Wind  Press.  Precip.   
Year   Day            Temp.  Hum.  Speed  Dir.   Gust                    
2015   (MST)  Kw/m2    F      %     mph   deg.    mph    mb.     in.     
-------------------------------------------------------------------------
 240    5:30   0.00   41.8    96    1.9   276     3.0   99999.0    0.00 
 240    5:40   0.01   42.5    96    1.1   305     2.4   99999.0    0.00 
 240    5:50   0.01   42.2    96    0.3   348     1.8   99999.0    0.00 
 240    6:00   0.02   42.5    96    2.0   251     3.6   99999.0    0.00 
 240    6:10   0.04   43.1    96    2.1   244     3.6   99999.0    0.00 
 240    6:20   0.12   45.3    96    1.0   246     3.0   99999.0    0.00 
 240    6:30   0.15   48.0    96    0.3   331     1.8   99999.0    0.00 
 240    6:40   0.21   50.8    94    1.7   335     3.6   99999.0    0.00 
 240    6:50   0.23   54.8    82    1.4   299     3.6   99999.0    0.00 
 240    7:00   0.23   57.9    76    2.8     3     5.4   99999.0    0.00 
 240    7:10   0.15   58.8    72    4.0    13     7.8   99999.0    0.00 
 240    7:20   0.24   58.7    73    3.5    45     6.0   99999.0    0.00 
 240    7:30   0.34   62.5    63    3.9    54     7.8   99999.0    0.00 
 240    7:40   0.37   63.8    59    7.0    53    11.3   99999.0    0.00 
 240    7:50   0.39   64.4    57    7.4    57    11.9   99999.0    0.00 
 240    8:00   0.44   65.8    52    4.9    59     9.0   99999.0    0.00 
 240    8:10   0.47   67.3    49    5.3    62     9.6   99999.0    0.00 
 240    8:20   0.51   66.1    50    5.4   103     7.8   99999.0    0.00 
 240    8:30   0.53   66.7    49    6.3    68     9.6   99999.0    0.00 
 240    8:40   0.56   68.8    46    5.3    71     8.4   99999.0    0.00 
 240    8:50   0.59   69.4    43    5.0    50     8.4   99999.0    0.00 
 240    9:00   0.62   70.1    41    3.9    37     7.8   99999.0    0.00 
 240    9:10   0.66   69.9    44    4.4    82     9.0   99999.0    0.00 
 240    9:20   0.70   71.1    41    4.6    54     8.4   99999.0    0.00 
 240    9:30   0.73   69.4    44    5.1    92     9.6   99999.0    0.00 
 240    9:40   0.76   70.9    42    4.8    59     9.0   99999.0    0.00 
 240    9:50   0.78   72.2    40    5.6    46    10.2   99999.0    0.00 
 240   10:00   0.83   72.5    40    5.4    51     8.4   99999.0    0.00 
 240   10:10   0.89   73.4    38    4.8    52     9.0   99999.0    0.00 
 240   10:20   0.92   71.2    40    3.8   146     7.2   99999.0    0.00 
 240   10:30   0.92   71.6    42    5.5    88     9.0   99999.0    0.00 
 240   10:40   0.47   68.9    44    4.9    79     9.6   99999.0    0.00 
 240   10:50   0.32   68.5    45    4.9    64     9.6   99999.0    0.00 
 240   11:00   0.44   66.5    47    3.5    61     9.0   99999.0    0.00 
 240   11:10   1.06   71.9    43    4.5    18     8.4   99999.0    0.00 
 240   11:20   0.33   71.3    41    1.9   215     4.2   99999.0    0.00 
 240   11:30   0.15   66.3    48    4.2   170    10.8   99999.0    0.00 
 240   11:40   0.10   63.9    53    5.0   174    10.8   99999.0    0.00 
 240   11:50   0.07   63.4    53    4.6   143     9.6   99999.0    0.00 
 240   12:00   0.04   63.0    55    4.0   212    10.2   99999.0    0.00 
 240   12:10   0.05   59.6    66    7.9   169    15.5   99999.0    0.00 
 240   12:20   0.08   57.5    70    6.3   180    12.5   99999.0    0.00 
 240   12:30   0.15   57.9    70    5.6   182     9.0   99999.0    0.00 
 240   12:40   0.26   58.7    69    4.8   170     7.2   99999.0    0.00 
 240   12:50   0.28   60.0    66    4.7   166     7.8   99999.0    0.00 
 240   13:00   0.23   60.6    64    3.8   160     6.0   99999.0    0.00 
 240   13:10   0.19   60.9    63    3.7   178     5.4   99999.0    0.00 
 240   13:20   0.20   61.3    63    2.6   151     3.6   99999.0    0.00 
 240   13:30   0.21   61.9    63    2.0   147     5.4   99999.0    0.00 
 240   13:40   0.22   61.1    63    5.1   188     9.0   99999.0    0.00 
 240   13:50   0.27   60.9    64    3.8   173     6.0   99999.0    0.00 
 240   14:00   0.39   62.0    63    4.0   160     5.4   99999.0    0.00 
 240   14:10   0.32   63.2    60    2.9   170     4.2   99999.0    0.00 
 240   14:20   0.28   63.4    60    3.3   170     6.0   99999.0    0.00 
 240   14:30   0.29   63.3    59    4.5   168     6.0   99999.0    0.00 
 240   14:40   0.77   64.6    57    5.4   166     7.8   99999.0    0.00 
 240   14:50   0.83   67.4    52    5.4   168     8.4   99999.0    0.00 
 240   15:00   0.77   68.1    50    5.1   171     9.0   99999.0    0.00 
 240   15:10   0.64   70.5    43    3.3   213     6.0   99999.0    0.00 
 240   15:20   0.25   68.9    44    3.1   192     6.0   99999.0    0.00 
 240   15:30   0.29   68.4    45    2.8   161     6.0   99999.0    0.00 
 240   15:40   0.43   68.0    48    3.5   161     5.4   99999.0    0.00 
 240   15:50   0.47   70.1    45    3.9   173     7.2   99999.0    0.00 
 240   16:00   0.14   67.8    45    3.6   172     5.4   99999.0    0.00 
 240   16:10   0.09   66.5    49    2.8   170     6.0   99999.0    0.00 
 240   16:20   0.05   66.0    52    3.6    72     6.0   99999.0    0.00 
 240   16:30   0.04   62.3    56   12.8    44    20.3   99999.0    0.09 
 240   16:40   0.04   54.0    72    9.8   115    16.1   99999.0    0.09 
 240   16:50   0.07   52.2    75    6.1   171    10.2   99999.0    0.02 
 240   17:00   0.29   53.3    79    4.0   196     6.0   99999.0    0.01 
 240   17:10   0.21   57.7    67    4.6   182     9.6   99999.0    0.00 
 240   17:20   0.18   56.5    76    5.7   164     9.0   99999.0    0.00 
 240   17:30   0.08   55.7    77    4.9   176     8.4   99999.0    0.00 
 240   17:40   0.03   54.7    80    3.6   102     6.0   99999.0    0.00 
 240   17:50   0.01   53.4    86    2.6   271     4.2   99999.0    0.00 
 240   18:00   0.03   55.0    73    4.5   280    10.8   99999.0    0.00 
 240   18:10   0.04   56.1    70    2.8   208     5.4   99999.0    0.00 
 240   18:20   0.08   53.7    81    6.0   165     8.4   99999.0    0.00 
 240   18:30   0.07   54.2    79    6.8   217    10.2   99999.0    0.00 
 240   18:40   0.05   55.2    71    5.9   159    10.2   99999.0    0.00 
 240   18:50   0.03   54.2    76    2.2    21     6.6   99999.0    0.00 
 240   19:00   0.00   52.7    82    1.2   267     2.4   99999.0    0.00 
 240   19:10   0.00   50.9    85    1.5    99     3.6   99999.0    0.00 
 240   19:20   0.00   49.4    90    0.4   261     2.4   99999.0    0.00 
 240   19:30   0.00   48.7    91    0.3   321     2.4   99999.0    0.00 
 240   19:40   0.00   48.6    92    0.6    60     3.6   99999.0    0.00 
 240   19:50   0.00   47.9    92    0.7    13     3.6   99999.0    0.00 
 240   20:00   0.00   47.2    93    2.4   296     6.6   99999.0    0.00 
 240   20:10   0.00   48.8    94    2.0   259     8.4   99999.0    0.00 
 240   20:20   0.00   48.5    92    0.3    64     1.8   99999.0    0.00 
 240   20:30   0.00   48.0    92    0.3   236     2.4   99999.0    0.00 
 240   20:40   0.00   47.9    93    0.8   246     3.0   99999.0    0.00 
 240   20:50   0.00   47.8    93    0.1   291     1.2   99999.0    0.00 
 240   21:00   0.00   47.4    93    1.0   356     3.0   99999.0    0.00 
 240   21:10   0.00   47.0    93    1.9    79     3.6   99999.0    0.00 
 240   21:20   0.00   46.9    94    0.1   267     1.8   99999.0    0.00 
 240   21:30   0.00   46.6    94    0.9   277     3.0   99999.0    0.00 
 240   21:40   0.00   46.2    94    0.6   246     2.4   99999.0    0.00 
 240   21:50   0.00   45.7    94    0.9   248     3.0   99999.0    0.00 
 240   22:00   0.00   45.3    94    1.4   282     3.6   99999.0    0.00 
 240   22:10   0.00   45.3    94    1.7   120     3.6   99999.0    0.00 
 240   22:20   0.00   44.8    94    0.8   295     2.4   99999.0    0.00 
 240   22:30   0.00   44.8    94    0.8   244     2.4   99999.0    0.00 
 240   22:40   0.00   45.1    95    0.4   225     3.0   99999.0    0.00 
 240   22:50   0.00   45.1    94    1.1    27     3.6   99999.0    0.00 
 240   23:00   0.00   44.7    94    0.8   237     3.0   99999.0    0.00 
 240   23:10   0.00   44.4    94    2.3   228     4.2   99999.0    0.00 
 240   23:20   0.00   44.4    94    0.8   356     3.0   99999.0    0.00 
 240   23:30   0.00   44.2    94    0.0    42     1.2   99999.0    0.00 
 240   23:40   0.00   44.8    95    1.2   236     3.6   99999.0    0.00 
 240   23:50   0.00   45.7    95    0.8   230     3.0   99999.0    0.00 
 241    0:00   0.00   45.9    95    0.0    16     1.2   99999.0    0.00 
 241    0:10   0.00   46.0    94    0.0     0     0.0   99999.0    0.00 
 241    0:20   0.00   46.2    94    0.1   312     1.2   99999.0    0.00 
 241    0:30   0.00   46.3    94    0.5   298     1.8   99999.0    0.00 
 241    0:40   0.00   46.6    94    0.0   188     1.2   99999.0    0.00 
 241    0:50   0.00   46.6    94    0.0     2     1.2   99999.0    0.00 
 241    1:00   0.00   46.5    94    0.0     0     0.0   99999.0    0.00 
 241    1:10   0.00   46.4    94    0.1   345     1.8   99999.0    0.00 
 241    1:20   0.00   46.4    94    0.4   211     2.4   99999.0    0.00 
 241    1:30   0.00   46.0    94    1.6    36     4.2   99999.0    0.00 
 241    1:40   0.00   45.9    95    1.8   226     4.8   99999.0    0.00 
 241    1:50   0.00   46.6    95    1.2   304     4.8   99999.0    0.00 
 241    2:00   0.00   46.6    95    0.4   232     2.4   99999.0    0.00 
 241    2:10   0.00   46.7    95    0.9   253     3.0   99999.0    0.00 
 241    2:20   0.00   46.8    95    0.6   117     2.4   99999.0    0.00 
 241    2:30   0.00   46.9    94    0.2   230     1.8   99999.0    0.00 
 241    2:40   0.00   46.9    94    0.3   315     1.8   99999.0    0.00 
 241    2:50   0.00   46.6    94    0.0     0     0.0   99999.0    0.00 
 241    3:00   0.00   46.3    94    0.7   208     2.4   99999.0    0.00 
 241    3:10   0.00   46.2    94    1.2   290     2.4   99999.0    0.00 
 241    3:20   0.00   45.6    94    0.6   230     3.0   99999.0    0.00 
 241    3:30   0.00   45.0    94    0.6   239     2.4   99999.0    0.00 
 241    3:40   0.00   44.5    94    0.4    82     3.0   99999.0    0.00 
 241    3:50   0.00   43.8    95    0.1   254     1.2   99999.0    0.00 
 241    4:00   0.00   43.9    95    0.0     0     0.0   99999.0    0.00 
 241    4:10   0.00   43.0    95    0.7   292     2.4   99999.0    0.00 
 241    4:20   0.00   42.9    95    0.0   263     1.2   99999.0    0.00 
 241    4:30   0.00   42.6    95    0.6   249     2.4   99999.0    0.00 
 241    4:40   0.00   42.2    95    0.4   261     1.8   99999.0    0.00 
 241    4:50   0.00   41.8    95    0.9   246     3.6   99999.0    0.00 
 241    5:00   0.00   42.8    96    1.8   262     4.2   99999.0    0.00 
 241    5:10   0.00   42.8    96    1.3   245     3.6   99999.0    0.00 
 241    5:20   0.00   41.8    96    0.2   260     1.8   99999.0    0.00 

Return to Los Posos, Valles Caldera graphs page.


Western Regional Climate Center,wrcc@dri.edu